sensor_id;sensor_type;location;lat;lon;timestamp;P1;durP1;ratioP1;P2;durP2;ratioP2
28170;SDS011;15458;53.346;-1.688;2022-12-26T00:00:23;5.80;;;1.27;;
28170;SDS011;15458;53.346;-1.688;2022-12-26T00:02:49;11.48;;;2.05;;
28170;SDS011;15458;53.346;-1.688;2022-12-26T00:05:15;24.73;;;2.78;;
28170;SDS011;15458;53.346;-1.688;2022-12-26T00:07:40;9.82;;;2.00;;
28170;SDS011;15458;53.346;-1.688;2022-12-26T00:10:06;10.15;;;2.75;;
28170;SDS011;15458;53.346;-1.688;2022-12-26T00:12:32;11.35;;;2.17;;
28170;SDS011;15458;53.346;-1.688;2022-12-26T00:14:59;11.75;;;2.40;;
28170;SDS011;15458;53.346;-1.688;2022-12-26T00:17:24;13.10;;;1.88;;
28170;SDS011;15458;53.346;-1.688;2022-12-26T00:19:50;9.00;;;1.73;;
28170;SDS011;15458;53.346;-1.688;2022-12-26T00:22:16;6.82;;;1.65;;
28170;SDS011;15458;53.346;-1.688;2022-12-26T00:24:42;6.75;;;1.73;;
28170;SDS011;15458;53.346;-1.688;2022-12-26T00:27:07;8.55;;;2.03;;
28170;SDS011;15458;53.346;-1.688;2022-12-26T00:29:33;14.32;;;2.40;;
28170;SDS011;15458;53.346;-1.688;2022-12-26T00:31:59;9.85;;;2.30;;
28170;SDS011;15458;53.346;-1.688;2022-12-26T00:34:24;13.85;;;1.95;;
28170;SDS011;15458;53.346;-1.688;2022-12-26T00:36:50;11.27;;;2.45;;
28170;SDS011;15458;53.346;-1.688;2022-12-26T00:39:16;8.95;;;1.40;;
28170;SDS011;15458;53.346;-1.688;2022-12-26T00:41:42;7.80;;;1.63;;
28170;SDS011;15458;53.346;-1.688;2022-12-26T00:44:07;2.67;;;1.75;;
28170;SDS011;15458;53.346;-1.688;2022-12-26T00:46:33;11.15;;;1.60;;
28170;SDS011;15458;53.346;-1.688;2022-12-26T00:48:59;9.93;;;1.58;;
28170;SDS011;15458;53.346;-1.688;2022-12-26T00:51:24;21.20;;;1.75;;
28170;SDS011;15458;53.346;-1.688;2022-12-26T00:53:50;10.70;;;3.08;;
28170;SDS011;15458;53.346;-1.688;2022-12-26T00:56:16;11.57;;;1.75;;
28170;SDS011;15458;53.346;-1.688;2022-12-26T00:58:42;8.52;;;1.60;;
28170;SDS011;15458;53.346;-1.688;2022-12-26T01:01:09;7.45;;;1.63;;
28170;SDS011;15458;53.346;-1.688;2022-12-26T01:03:41;4.10;;;0.73;;
28170;SDS011;15458;53.346;-1.688;2022-12-26T01:06:08;7.25;;;1.40;;
28170;SDS011;15458;53.346;-1.688;2022-12-26T01:08:34;5.05;;;1.55;;
28170;SDS011;15458;53.346;-1.688;2022-12-26T01:11:05;4.70;;;0.90;;
28170;SDS011;15458;53.346;-1.688;2022-12-26T01:13:32;6.45;;;1.20;;
28170;SDS011;15458;53.346;-1.688;2022-12-26T01:15:59;6.93;;;1.02;;
28170;SDS011;15458;53.346;-1.688;2022-12-26T01:18:25;1.67;;;0.65;;
28170;SDS011;15458;53.346;-1.688;2022-12-26T01:20:50;2.35;;;0.50;;
28170;SDS011;15458;53.346;-1.688;2022-12-26T01:23:21;3.40;;;0.80;;
28170;SDS011;15458;53.346;-1.688;2022-12-26T01:25:47;1.75;;;0.75;;
28170;SDS011;15458;53.346;-1.688;2022-12-26T01:28:12;4.15;;;0.68;;
28170;SDS011;15458;53.346;-1.688;2022-12-26T01:30:38;3.63;;;0.85;;
28170;SDS011;15458;53.346;-1.688;2022-12-26T01:33:04;2.05;;;0.80;;
28170;SDS011;15458;53.346;-1.688;2022-12-26T01:35:30;0.57;;;0.22;;
28170;SDS011;15458;53.346;-1.688;2022-12-26T01:37:55;2.00;;;0.60;;
28170;SDS011;15458;53.346;-1.688;2022-12-26T01:40:22;3.33;;;0.60;;
28170;SDS011;15458;53.346;-1.688;2022-12-26T01:42:48;0.75;;;0.30;;
28170;SDS011;15458;53.346;-1.688;2022-12-26T01:51:00;1.80;;;0.47;;
28170;SDS011;15458;53.346;-1.688;2022-12-26T01:53:30;1.30;;;0.52;;
28170;SDS011;15458;53.346;-1.688;2022-12-26T01:56:03;2.28;;;0.52;;
28170;SDS011;15458;53.346;-1.688;2022-12-26T01:58:36;1.88;;;0.60;;
28170;SDS011;15458;53.346;-1.688;2022-12-26T02:01:06;0.50;;;0.50;;
28170;SDS011;15458;53.346;-1.688;2022-12-26T02:03:34;6.57;;;0.82;;
28170;SDS011;15458;53.346;-1.688;2022-12-26T02:06:40;1.38;;;0.60;;
28170;SDS011;15458;53.346;-1.688;2022-12-26T02:09:07;0.85;;;0.60;;
28170;SDS011;15458;53.346;-1.688;2022-12-26T02:11:41;3.03;;;0.47;;
28170;SDS011;15458;53.346;-1.688;2022-12-26T02:14:09;0.35;;;0.35;;
28170;SDS011;15458;53.346;-1.688;2022-12-26T02:16:36;0.32;;;0.32;;
28170;SDS011;15458;53.346;-1.688;2022-12-26T02:19:03;1.30;;;0.32;;
28170;SDS011;15458;53.346;-1.688;2022-12-26T02:33:06;0.63;;;0.20;;
28170;SDS011;15458;53.346;-1.688;2022-12-26T02:43:33;0.20;;;0.10;;
28170;SDS011;15458;53.346;-1.688;2022-12-26T02:46:12;2.38;;;0.17;;
28170;SDS011;15458;53.346;-1.688;2022-12-26T02:49:05;2.30;;;0.10;;
28170;SDS011;15458;53.346;-1.688;2022-12-26T02:57:22;0.98;;;0.20;;
28170;SDS011;15458;53.346;-1.688;2022-12-26T03:00:16;0.60;;;0.25;;
28170;SDS011;15458;53.346;-1.688;2022-12-26T03:03:15;2.22;;;0.30;;
28170;SDS011;15458;53.346;-1.688;2022-12-26T03:09:11;1.55;;;0.30;;
28170;SDS011;15458;53.346;-1.688;2022-12-26T03:12:08;5.55;;;0.47;;
28170;SDS011;15458;53.346;-1.688;2022-12-26T03:14:57;1.60;;;0.10;;
28170;SDS011;15458;53.346;-1.688;2022-12-26T03:17:34;1.30;;;0.30;;
28170;SDS011;15458;53.346;-1.688;2022-12-26T03:20:04;7.82;;;0.52;;
28170;SDS011;15458;53.346;-1.688;2022-12-26T03:22:36;4.90;;;0.40;;
28170;SDS011;15458;53.346;-1.688;2022-12-26T03:25:13;4.55;;;1.30;;
28170;SDS011;15458;53.346;-1.688;2022-12-26T03:28:13;1.20;;;0.47;;
28170;SDS011;15458;53.346;-1.688;2022-12-26T03:30:39;3.97;;;0.77;;
28170;SDS011;15458;53.346;-1.688;2022-12-26T03:33:19;6.43;;;1.25;;
28170;SDS011;15458;53.346;-1.688;2022-12-26T03:36:11;6.07;;;0.60;;
28170;SDS011;15458;53.346;-1.688;2022-12-26T03:50:10;4.82;;;0.85;;
28170;SDS011;15458;53.346;-1.688;2022-12-26T03:56:19;9.65;;;0.75;;
28170;SDS011;15458;53.346;-1.688;2022-12-26T03:59:15;6.28;;;1.58;;
28170;SDS011;15458;53.346;-1.688;2022-12-26T04:02:08;4.43;;;0.70;;
28170;SDS011;15458;53.346;-1.688;2022-12-26T04:04:54;9.63;;;0.93;;
28170;SDS011;15458;53.346;-1.688;2022-12-26T04:07:43;6.38;;;0.85;;
28170;SDS011;15458;53.346;-1.688;2022-12-26T04:10:43;3.85;;;0.70;;
28170;SDS011;15458;53.346;-1.688;2022-12-26T04:13:45;3.72;;;0.73;;
28170;SDS011;15458;53.346;-1.688;2022-12-26T04:19:45;7.53;;;0.68;;
28170;SDS011;15458;53.346;-1.688;2022-12-26T04:22:12;7.10;;;0.80;;
28170;SDS011;15458;53.346;-1.688;2022-12-26T04:25:15;6.75;;;0.75;;
28170;SDS011;15458;53.346;-1.688;2022-12-26T04:28:04;6.10;;;0.65;;
28170;SDS011;15458;53.346;-1.688;2022-12-26T04:30:50;5.15;;;0.75;;
28170;SDS011;15458;53.346;-1.688;2022-12-26T04:33:43;3.50;;;1.42;;
28170;SDS011;15458;53.346;-1.688;2022-12-26T04:36:39;5.57;;;0.95;;
28170;SDS011;15458;53.346;-1.688;2022-12-26T04:39:33;3.25;;;0.90;;
28170;SDS011;15458;53.346;-1.688;2022-12-26T04:42:18;5.00;;;1.42;;
28170;SDS011;15458;53.346;-1.688;2022-12-26T04:45:04;6.15;;;0.45;;
28170;SDS011;15458;53.346;-1.688;2022-12-26T04:47:31;4.68;;;1.00;;
28170;SDS011;15458;53.346;-1.688;2022-12-26T04:49:57;3.70;;;0.52;;
28170;SDS011;15458;53.346;-1.688;2022-12-26T04:52:39;8.23;;;1.00;;
28170;SDS011;15458;53.346;-1.688;2022-12-26T04:55:28;4.90;;;0.73;;
28170;SDS011;15458;53.346;-1.688;2022-12-26T04:57:56;6.20;;;0.93;;
28170;SDS011;15458;53.346;-1.688;2022-12-26T05:00:23;8.60;;;0.90;;
28170;SDS011;15458;53.346;-1.688;2022-12-26T05:02:51;6.43;;;0.98;;
28170;SDS011;15458;53.346;-1.688;2022-12-26T05:05:40;4.75;;;0.90;;
28170;SDS011;15458;53.346;-1.688;2022-12-26T05:08:40;6.85;;;1.15;;
28170;SDS011;15458;53.346;-1.688;2022-12-26T05:11:26;7.28;;;1.23;;
28170;SDS011;15458;53.346;-1.688;2022-12-26T05:13:53;8.18;;;0.95;;
28170;SDS011;15458;53.346;-1.688;2022-12-26T05:16:20;9.48;;;1.08;;
28170;SDS011;15458;53.346;-1.688;2022-12-26T05:19:05;9.02;;;1.20;;
28170;SDS011;15458;53.346;-1.688;2022-12-26T05:21:51;9.10;;;1.15;;
28170;SDS011;15458;53.346;-1.688;2022-12-26T05:24:36;3.92;;;0.82;;
28170;SDS011;15458;53.346;-1.688;2022-12-26T05:27:22;5.15;;;0.70;;
28170;SDS011;15458;53.346;-1.688;2022-12-26T05:30:07;10.27;;;1.35;;
28170;SDS011;15458;53.346;-1.688;2022-12-26T05:32:33;3.55;;;0.90;;
28170;SDS011;15458;53.346;-1.688;2022-12-26T05:35:18;6.72;;;0.70;;
28170;SDS011;15458;53.346;-1.688;2022-12-26T05:37:44;10.30;;;1.13;;
28170;SDS011;15458;53.346;-1.688;2022-12-26T05:40:10;13.88;;;2.58;;
28170;SDS011;15458;53.346;-1.688;2022-12-26T05:42:36;11.65;;;1.48;;
28170;SDS011;15458;53.346;-1.688;2022-12-26T05:45:02;5.10;;;1.30;;
28170;SDS011;15458;53.346;-1.688;2022-12-26T05:47:28;4.57;;;0.70;;
28170;SDS011;15458;53.346;-1.688;2022-12-26T05:49:54;8.77;;;0.98;;
28170;SDS011;15458;53.346;-1.688;2022-12-26T05:52:19;7.72;;;0.80;;
28170;SDS011;15458;53.346;-1.688;2022-12-26T05:54:45;3.72;;;0.63;;
28170;SDS011;15458;53.346;-1.688;2022-12-26T05:57:13;7.90;;;1.50;;
28170;SDS011;15458;53.346;-1.688;2022-12-26T05:59:39;11.07;;;0.98;;
28170;SDS011;15458;53.346;-1.688;2022-12-26T06:02:06;7.85;;;0.77;;
28170;SDS011;15458;53.346;-1.688;2022-12-26T06:04:32;10.45;;;0.90;;
28170;SDS011;15458;53.346;-1.688;2022-12-26T06:06:59;8.68;;;1.85;;
28170;SDS011;15458;53.346;-1.688;2022-12-26T06:09:24;4.50;;;0.82;;
28170;SDS011;15458;53.346;-1.688;2022-12-26T06:11:50;9.52;;;1.17;;
28170;SDS011;15458;53.346;-1.688;2022-12-26T06:14:16;4.80;;;1.05;;
28170;SDS011;15458;53.346;-1.688;2022-12-26T06:16:41;10.15;;;1.13;;
28170;SDS011;15458;53.346;-1.688;2022-12-26T06:19:07;9.20;;;0.98;;
28170;SDS011;15458;53.346;-1.688;2022-12-26T06:21:33;12.70;;;1.98;;
28170;SDS011;15458;53.346;-1.688;2022-12-26T06:23:58;5.43;;;1.02;;
28170;SDS011;15458;53.346;-1.688;2022-12-26T06:26:24;9.48;;;1.30;;
28170;SDS011;15458;53.346;-1.688;2022-12-26T06:28:50;9.77;;;1.55;;
28170;SDS011;15458;53.346;-1.688;2022-12-26T06:31:17;9.15;;;1.02;;
28170;SDS011;15458;53.346;-1.688;2022-12-26T06:33:45;17.15;;;1.55;;
28170;SDS011;15458;53.346;-1.688;2022-12-26T06:36:12;14.90;;;1.20;;
28170;SDS011;15458;53.346;-1.688;2022-12-26T06:38:39;8.95;;;1.10;;
28170;SDS011;15458;53.346;-1.688;2022-12-26T06:41:07;12.82;;;1.23;;
28170;SDS011;15458;53.346;-1.688;2022-12-26T06:43:34;12.95;;;1.10;;
28170;SDS011;15458;53.346;-1.688;2022-12-26T06:46:00;4.97;;;0.85;;
28170;SDS011;15458;53.346;-1.688;2022-12-26T06:48:27;4.65;;;0.82;;
28170;SDS011;15458;53.346;-1.688;2022-12-26T06:50:53;14.93;;;2.05;;
28170;SDS011;15458;53.346;-1.688;2022-12-26T06:53:20;8.45;;;1.70;;
28170;SDS011;15458;53.346;-1.688;2022-12-26T06:55:49;8.80;;;1.48;;
28170;SDS011;15458;53.346;-1.688;2022-12-26T06:58:16;7.13;;;1.00;;
28170;SDS011;15458;53.346;-1.688;2022-12-26T07:00:42;9.63;;;1.20;;
28170;SDS011;15458;53.346;-1.688;2022-12-26T07:03:09;6.65;;;1.38;;
28170;SDS011;15458;53.346;-1.688;2022-12-26T07:05:35;11.88;;;0.80;;
28170;SDS011;15458;53.346;-1.688;2022-12-26T07:08:01;6.68;;;1.15;;
28170;SDS011;15458;53.346;-1.688;2022-12-26T07:10:27;9.48;;;1.23;;
28170;SDS011;15458;53.346;-1.688;2022-12-26T07:12:53;10.68;;;1.23;;
28170;SDS011;15458;53.346;-1.688;2022-12-26T07:15:19;10.80;;;1.30;;
28170;SDS011;15458;53.346;-1.688;2022-12-26T07:17:45;4.38;;;1.83;;
28170;SDS011;15458;53.346;-1.688;2022-12-26T07:20:10;5.95;;;1.83;;
28170;SDS011;15458;53.346;-1.688;2022-12-26T07:22:37;14.52;;;1.50;;
28170;SDS011;15458;53.346;-1.688;2022-12-26T07:25:02;4.82;;;1.60;;
28170;SDS011;15458;53.346;-1.688;2022-12-26T07:27:28;4.57;;;1.00;;
28170;SDS011;15458;53.346;-1.688;2022-12-26T07:29:54;7.45;;;1.02;;
28170;SDS011;15458;53.346;-1.688;2022-12-26T07:32:19;6.28;;;1.55;;
28170;SDS011;15458;53.346;-1.688;2022-12-26T07:34:45;10.50;;;1.38;;
28170;SDS011;15458;53.346;-1.688;2022-12-26T07:37:11;7.40;;;1.10;;
28170;SDS011;15458;53.346;-1.688;2022-12-26T07:39:36;17.10;;;1.10;;
28170;SDS011;15458;53.346;-1.688;2022-12-26T07:42:03;11.63;;;1.38;;
28170;SDS011;15458;53.346;-1.688;2022-12-26T07:44:30;9.98;;;1.20;;
28170;SDS011;15458;53.346;-1.688;2022-12-26T07:46:56;6.57;;;1.27;;
28170;SDS011;15458;53.346;-1.688;2022-12-26T07:49:23;8.60;;;1.08;;
28170;SDS011;15458;53.346;-1.688;2022-12-26T07:51:49;13.32;;;1.35;;
28170;SDS011;15458;53.346;-1.688;2022-12-26T07:54:16;5.25;;;0.93;;
28170;SDS011;15458;53.346;-1.688;2022-12-26T07:56:42;14.00;;;1.38;;
28170;SDS011;15458;53.346;-1.688;2022-12-26T07:59:12;13.40;;;2.17;;
28170;SDS011;15458;53.346;-1.688;2022-12-26T08:01:39;4.50;;;0.85;;
28170;SDS011;15458;53.346;-1.688;2022-12-26T08:04:06;11.45;;;1.48;;
28170;SDS011;15458;53.346;-1.688;2022-12-26T08:06:31;7.25;;;1.45;;
28170;SDS011;15458;53.346;-1.688;2022-12-26T08:08:57;7.70;;;1.67;;
28170;SDS011;15458;53.346;-1.688;2022-12-26T08:11:23;7.57;;;1.00;;
28170;SDS011;15458;53.346;-1.688;2022-12-26T08:13:50;8.52;;;1.27;;
28170;SDS011;15458;53.346;-1.688;2022-12-26T08:16:16;11.82;;;1.23;;
28170;SDS011;15458;53.346;-1.688;2022-12-26T08:18:43;7.35;;;1.05;;
28170;SDS011;15458;53.346;-1.688;2022-12-26T08:21:12;12.18;;;1.80;;
28170;SDS011;15458;53.346;-1.688;2022-12-26T08:23:37;22.27;;;2.78;;
28170;SDS011;15458;53.346;-1.688;2022-12-26T08:26:07;9.35;;;1.73;;
28170;SDS011;15458;53.346;-1.688;2022-12-26T08:28:35;6.45;;;1.23;;
28170;SDS011;15458;53.346;-1.688;2022-12-26T08:31:17;12.70;;;2.40;;
28170;SDS011;15458;53.346;-1.688;2022-12-26T08:33:43;9.70;;;1.70;;
28170;SDS011;15458;53.346;-1.688;2022-12-26T08:36:10;11.65;;;1.50;;
28170;SDS011;15458;53.346;-1.688;2022-12-26T08:38:37;10.50;;;1.27;;
28170;SDS011;15458;53.346;-1.688;2022-12-26T08:41:04;13.05;;;1.30;;
28170;SDS011;15458;53.346;-1.688;2022-12-26T08:43:30;9.18;;;1.40;;
28170;SDS011;15458;53.346;-1.688;2022-12-26T08:46:06;7.35;;;1.40;;
28170;SDS011;15458;53.346;-1.688;2022-12-26T08:48:33;8.93;;;1.88;;
28170;SDS011;15458;53.346;-1.688;2022-12-26T08:51:01;7.15;;;1.35;;
28170;SDS011;15458;53.346;-1.688;2022-12-26T08:53:33;11.98;;;1.80;;
28170;SDS011;15458;53.346;-1.688;2022-12-26T08:56:03;12.27;;;2.13;;
28170;SDS011;15458;53.346;-1.688;2022-12-26T08:58:31;6.85;;;0.80;;
28170;SDS011;15458;53.346;-1.688;2022-12-26T09:01:07;4.47;;;1.00;;
28170;SDS011;15458;53.346;-1.688;2022-12-26T09:03:38;4.15;;;0.77;;
28170;SDS011;15458;53.346;-1.688;2022-12-26T09:06:04;8.95;;;1.10;;
28170;SDS011;15458;53.346;-1.688;2022-12-26T09:08:30;4.68;;;0.98;;
28170;SDS011;15458;53.346;-1.688;2022-12-26T09:11:06;4.07;;;1.08;;
28170;SDS011;15458;53.346;-1.688;2022-12-26T09:13:35;7.75;;;1.60;;
28170;SDS011;15458;53.346;-1.688;2022-12-26T09:16:05;5.45;;;1.17;;
28170;SDS011;15458;53.346;-1.688;2022-12-26T09:18:32;6.63;;;1.15;;
28170;SDS011;15458;53.346;-1.688;2022-12-26T09:20:59;7.30;;;1.60;;
28170;SDS011;15458;53.346;-1.688;2022-12-26T09:23:45;4.35;;;1.20;;
28170;SDS011;15458;53.346;-1.688;2022-12-26T09:26:19;7.40;;;1.27;;
28170;SDS011;15458;53.346;-1.688;2022-12-26T09:28:45;9.65;;;1.05;;
28170;SDS011;15458;53.346;-1.688;2022-12-26T09:31:15;5.53;;;1.38;;
28170;SDS011;15458;53.346;-1.688;2022-12-26T09:33:42;6.97;;;1.73;;
28170;SDS011;15458;53.346;-1.688;2022-12-26T09:36:09;7.18;;;0.98;;
28170;SDS011;15458;53.346;-1.688;2022-12-26T09:38:36;7.95;;;1.35;;
28170;SDS011;15458;53.346;-1.688;2022-12-26T09:41:10;5.78;;;1.20;;
28170;SDS011;15458;53.346;-1.688;2022-12-26T09:49:05;7.03;;;1.63;;
28170;SDS011;15458;53.346;-1.688;2022-12-26T09:51:48;6.25;;;1.45;;
28170;SDS011;15458;53.346;-1.688;2022-12-26T09:57:16;6.70;;;1.20;;
28170;SDS011;15458;53.346;-1.688;2022-12-26T09:59:47;3.58;;;0.90;;
28170;SDS011;15458;53.346;-1.688;2022-12-26T10:02:17;12.85;;;1.25;;
28170;SDS011;15458;53.346;-1.688;2022-12-26T10:04:46;10.80;;;1.35;;
28170;SDS011;15458;53.346;-1.688;2022-12-26T10:07:20;9.20;;;0.98;;
28170;SDS011;15458;53.346;-1.688;2022-12-26T10:09:50;4.68;;;0.85;;
28170;SDS011;15458;53.346;-1.688;2022-12-26T10:17:54;6.05;;;1.60;;
28170;SDS011;15458;53.346;-1.688;2022-12-26T10:23:44;11.48;;;1.00;;
28170;SDS011;15458;53.346;-1.688;2022-12-26T10:26:18;3.05;;;0.98;;
28170;SDS011;15458;53.346;-1.688;2022-12-26T10:31:48;4.53;;;1.00;;
28170;SDS011;15458;53.346;-1.688;2022-12-26T10:34:35;5.07;;;0.80;;
28170;SDS011;15458;53.346;-1.688;2022-12-26T10:37:21;6.82;;;0.75;;
28170;SDS011;15458;53.346;-1.688;2022-12-26T10:40:21;9.77;;;1.38;;
28170;SDS011;15458;53.346;-1.688;2022-12-26T10:42:54;6.15;;;0.95;;
28170;SDS011;15458;53.346;-1.688;2022-12-26T10:45:38;2.60;;;1.02;;
28170;SDS011;15458;53.346;-1.688;2022-12-26T10:48:11;3.17;;;1.10;;
28170;SDS011;15458;53.346;-1.688;2022-12-26T10:50:38;8.40;;;1.40;;
28170;SDS011;15458;53.346;-1.688;2022-12-26T10:53:09;7.28;;;0.98;;
28170;SDS011;15458;53.346;-1.688;2022-12-26T10:55:37;5.18;;;1.02;;
28170;SDS011;15458;53.346;-1.688;2022-12-26T10:58:10;7.75;;;1.33;;
28170;SDS011;15458;53.346;-1.688;2022-12-26T11:00:47;2.88;;;0.60;;
28170;SDS011;15458;53.346;-1.688;2022-12-26T11:03:19;5.22;;;0.95;;
28170;SDS011;15458;53.346;-1.688;2022-12-26T11:05:56;6.43;;;1.30;;
28170;SDS011;15458;53.346;-1.688;2022-12-26T11:08:45;1.55;;;0.68;;
28170;SDS011;15458;53.346;-1.688;2022-12-26T11:17:01;3.45;;;0.68;;
28170;SDS011;15458;53.346;-1.688;2022-12-26T11:19:34;5.13;;;0.85;;
28170;SDS011;15458;53.346;-1.688;2022-12-26T11:22:13;4.88;;;1.00;;
28170;SDS011;15458;53.346;-1.688;2022-12-26T11:27:33;2.42;;;0.90;;
28170;SDS011;15458;53.346;-1.688;2022-12-26T11:32:38;2.05;;;0.80;;
28170;SDS011;15458;53.346;-1.688;2022-12-26T11:35:05;5.55;;;1.27;;
28170;SDS011;15458;53.346;-1.688;2022-12-26T11:37:40;4.68;;;0.80;;
28170;SDS011;15458;53.346;-1.688;2022-12-26T11:40:17;1.23;;;0.60;;
28170;SDS011;15458;53.346;-1.688;2022-12-26T11:42:49;9.63;;;1.67;;
28170;SDS011;15458;53.346;-1.688;2022-12-26T11:45:27;5.60;;;1.45;;
28170;SDS011;15458;53.346;-1.688;2022-12-26T11:47:55;1.17;;;0.70;;
28170;SDS011;15458;53.346;-1.688;2022-12-26T11:50:25;5.40;;;1.13;;
28170;SDS011;15458;53.346;-1.688;2022-12-26T11:57:57;7.80;;;0.80;;
28170;SDS011;15458;53.346;-1.688;2022-12-26T12:00:25;8.35;;;0.80;;
28170;SDS011;15458;53.346;-1.688;2022-12-26T12:02:52;4.70;;;1.67;;
28170;SDS011;15458;53.346;-1.688;2022-12-26T12:07:58;2.90;;;0.90;;
28170;SDS011;15458;53.346;-1.688;2022-12-26T12:16:29;4.10;;;1.55;;
28170;SDS011;15458;53.346;-1.688;2022-12-26T12:30:17;10.70;;;1.90;;
28170;SDS011;15458;53.346;-1.688;2022-12-26T12:46:04;3.13;;;0.70;;
28170;SDS011;15458;53.346;-1.688;2022-12-26T12:51:33;6.30;;;1.40;;
28170;SDS011;15458;53.346;-1.688;2022-12-26T12:54:31;3.35;;;0.82;;
28170;SDS011;15458;53.346;-1.688;2022-12-26T12:57:35;6.15;;;1.65;;
28170;SDS011;15458;53.346;-1.688;2022-12-26T13:00:14;4.75;;;1.00;;
28170;SDS011;15458;53.346;-1.688;2022-12-26T13:02:44;2.50;;;0.90;;
28170;SDS011;15458;53.346;-1.688;2022-12-26T13:08:01;4.00;;;0.90;;
28170;SDS011;15458;53.346;-1.688;2022-12-26T13:10:35;6.72;;;1.00;;
28170;SDS011;15458;53.346;-1.688;2022-12-26T13:13:10;3.75;;;1.20;;
28170;SDS011;15458;53.346;-1.688;2022-12-26T13:16:10;3.70;;;1.00;;
28170;SDS011;15458;53.346;-1.688;2022-12-26T13:18:43;6.05;;;1.50;;
28170;SDS011;15458;53.346;-1.688;2022-12-26T13:21:16;5.68;;;1.27;;
28170;SDS011;15458;53.346;-1.688;2022-12-26T13:23:45;6.72;;;1.17;;
28170;SDS011;15458;53.346;-1.688;2022-12-26T13:26:40;2.45;;;0.80;;
28170;SDS011;15458;53.346;-1.688;2022-12-26T13:29:32;4.80;;;1.00;;
28170;SDS011;15458;53.346;-1.688;2022-12-26T13:32:04;5.82;;;0.60;;
28170;SDS011;15458;53.346;-1.688;2022-12-26T13:34:44;8.63;;;1.10;;
28170;SDS011;15458;53.346;-1.688;2022-12-26T13:40:02;5.38;;;1.02;;
28170;SDS011;15458;53.346;-1.688;2022-12-26T13:42:43;5.50;;;0.82;;
28170;SDS011;15458;53.346;-1.688;2022-12-26T13:48:02;5.60;;;1.52;;
28170;SDS011;15458;53.346;-1.688;2022-12-26T13:51:39;2.85;;;1.20;;
28170;SDS011;15458;53.346;-1.688;2022-12-26T13:54:01;3.13;;;0.80;;
28170;SDS011;15458;53.346;-1.688;2022-12-26T14:01:42;3.88;;;0.90;;
28170;SDS011;15458;53.346;-1.688;2022-12-26T14:12:55;4.57;;;1.60;;
28170;SDS011;15458;53.346;-1.688;2022-12-26T14:32:39;3.38;;;0.75;;
28170;SDS011;15458;53.346;-1.688;2022-12-26T14:49:17;3.88;;;1.00;;
28170;SDS011;15458;53.346;-1.688;2022-12-26T14:52:26;9.80;;;3.13;;
28170;SDS011;15458;53.346;-1.688;2022-12-26T14:54:51;5.05;;;1.05;;
28170;SDS011;15458;53.346;-1.688;2022-12-26T15:05:43;3.97;;;1.30;;
28170;SDS011;15458;53.346;-1.688;2022-12-26T15:35:37;7.78;;;1.23;;
28170;SDS011;15458;53.346;-1.688;2022-12-26T15:41:10;6.45;;;1.25;;
28170;SDS011;15458;53.346;-1.688;2022-12-26T15:47:20;7.30;;;1.50;;
28170;SDS011;15458;53.346;-1.688;2022-12-26T15:50:09;12.57;;;1.52;;
28170;SDS011;15458;53.346;-1.688;2022-12-26T16:01:01;4.70;;;1.42;;
28170;SDS011;15458;53.346;-1.688;2022-12-26T16:03:33;8.70;;;2.03;;
28170;SDS011;15458;53.346;-1.688;2022-12-26T16:09:18;9.07;;;2.05;;
28170;SDS011;15458;53.346;-1.688;2022-12-26T16:11:59;7.03;;;1.33;;
28170;SDS011;15458;53.346;-1.688;2022-12-26T16:14:26;5.50;;;1.10;;
28170;SDS011;15458;53.346;-1.688;2022-12-26T16:16:53;4.65;;;1.50;;
28170;SDS011;15458;53.346;-1.688;2022-12-26T16:19:20;11.40;;;2.00;;
28170;SDS011;15458;53.346;-1.688;2022-12-26T16:21:50;8.57;;;1.20;;
28170;SDS011;15458;53.346;-1.688;2022-12-26T16:24:39;8.43;;;1.52;;
28170;SDS011;15458;53.346;-1.688;2022-12-26T16:27:07;9.95;;;2.33;;
28170;SDS011;15458;53.346;-1.688;2022-12-26T16:29:45;5.95;;;1.67;;
28170;SDS011;15458;53.346;-1.688;2022-12-26T16:32:15;5.05;;;1.30;;
28170;SDS011;15458;53.346;-1.688;2022-12-26T16:34:44;8.43;;;2.15;;
28170;SDS011;15458;53.346;-1.688;2022-12-26T16:37:16;3.13;;;1.48;;
28170;SDS011;15458;53.346;-1.688;2022-12-26T16:40:04;6.50;;;1.58;;
28170;SDS011;15458;53.346;-1.688;2022-12-26T16:42:39;7.88;;;1.80;;
28170;SDS011;15458;53.346;-1.688;2022-12-26T16:45:12;13.13;;;2.80;;
28170;SDS011;15458;53.346;-1.688;2022-12-26T16:47:43;6.53;;;1.63;;
28170;SDS011;15458;53.346;-1.688;2022-12-26T16:50:16;14.02;;;3.95;;
28170;SDS011;15458;53.346;-1.688;2022-12-26T16:58:29;9.20;;;2.45;;
28170;SDS011;15458;53.346;-1.688;2022-12-26T17:01:01;9.05;;;2.20;;
28170;SDS011;15458;53.346;-1.688;2022-12-26T17:03:53;8.45;;;2.22;;
28170;SDS011;15458;53.346;-1.688;2022-12-26T17:06:28;8.20;;;2.17;;
28170;SDS011;15458;53.346;-1.688;2022-12-26T17:09:09;10.95;;;1.60;;
28170;SDS011;15458;53.346;-1.688;2022-12-26T17:11:59;6.22;;;1.98;;
28170;SDS011;15458;53.346;-1.688;2022-12-26T17:14:30;17.13;;;3.22;;
28170;SDS011;15458;53.346;-1.688;2022-12-26T17:17:05;10.20;;;2.40;;
28170;SDS011;15458;53.346;-1.688;2022-12-26T17:19:33;10.68;;;2.33;;
28170;SDS011;15458;53.346;-1.688;2022-12-26T17:22:17;9.15;;;2.13;;
28170;SDS011;15458;53.346;-1.688;2022-12-26T17:24:47;9.90;;;2.22;;
28170;SDS011;15458;53.346;-1.688;2022-12-26T17:27:21;6.53;;;1.60;;
28170;SDS011;15458;53.346;-1.688;2022-12-26T17:29:58;7.10;;;2.58;;
28170;SDS011;15458;53.346;-1.688;2022-12-26T17:34:51;10.65;;;1.52;;
28170;SDS011;15458;53.346;-1.688;2022-12-26T17:43:04;11.65;;;2.40;;
28170;SDS011;15458;53.346;-1.688;2022-12-26T17:45:36;8.45;;;1.65;;
28170;SDS011;15458;53.346;-1.688;2022-12-26T17:48:03;5.20;;;1.77;;
28170;SDS011;15458;53.346;-1.688;2022-12-26T17:50:31;7.68;;;2.15;;
28170;SDS011;15458;53.346;-1.688;2022-12-26T17:53:06;8.10;;;2.83;;
28170;SDS011;15458;53.346;-1.688;2022-12-26T17:55:37;11.68;;;2.17;;
28170;SDS011;15458;53.346;-1.688;2022-12-26T17:58:03;10.02;;;2.78;;
28170;SDS011;15458;53.346;-1.688;2022-12-26T18:00:29;8.43;;;2.22;;
28170;SDS011;15458;53.346;-1.688;2022-12-26T18:02:56;12.52;;;1.63;;
28170;SDS011;15458;53.346;-1.688;2022-12-26T18:05:22;18.98;;;3.42;;
28170;SDS011;15458;53.346;-1.688;2022-12-26T18:07:48;7.55;;;1.63;;
28170;SDS011;15458;53.346;-1.688;2022-12-26T18:10:16;10.05;;;3.53;;
28170;SDS011;15458;53.346;-1.688;2022-12-26T18:12:50;7.45;;;1.67;;
28170;SDS011;15458;53.346;-1.688;2022-12-26T18:15:17;7.18;;;1.60;;
28170;SDS011;15458;53.346;-1.688;2022-12-26T18:17:44;7.40;;;2.05;;
28170;SDS011;15458;53.346;-1.688;2022-12-26T18:20:19;7.32;;;1.17;;
28170;SDS011;15458;53.346;-1.688;2022-12-26T18:22:47;4.30;;;1.25;;
28170;SDS011;15458;53.346;-1.688;2022-12-26T18:25:14;6.03;;;1.90;;
28170;SDS011;15458;53.346;-1.688;2022-12-26T18:27:41;5.43;;;1.70;;
28170;SDS011;15458;53.346;-1.688;2022-12-26T18:30:13;3.55;;;1.45;;
28170;SDS011;15458;53.346;-1.688;2022-12-26T18:32:41;12.85;;;1.70;;
28170;SDS011;15458;53.346;-1.688;2022-12-26T18:35:08;8.40;;;1.80;;
28170;SDS011;15458;53.346;-1.688;2022-12-26T18:37:34;12.75;;;2.85;;
28170;SDS011;15458;53.346;-1.688;2022-12-26T18:40:00;23.80;;;9.65;;
28170;SDS011;15458;53.346;-1.688;2022-12-26T18:42:26;6.53;;;1.90;;
28170;SDS011;15458;53.346;-1.688;2022-12-26T18:44:52;7.45;;;2.25;;
28170;SDS011;15458;53.346;-1.688;2022-12-26T18:47:19;6.47;;;2.10;;
28170;SDS011;15458;53.346;-1.688;2022-12-26T18:49:46;11.55;;;2.05;;
28170;SDS011;15458;53.346;-1.688;2022-12-26T18:52:12;9.27;;;1.92;;
28170;SDS011;15458;53.346;-1.688;2022-12-26T18:54:38;7.38;;;1.50;;
28170;SDS011;15458;53.346;-1.688;2022-12-26T18:57:05;11.20;;;4.03;;
28170;SDS011;15458;53.346;-1.688;2022-12-26T18:59:32;11.55;;;4.05;;
28170;SDS011;15458;53.346;-1.688;2022-12-26T19:01:58;26.92;;;10.18;;
28170;SDS011;15458;53.346;-1.688;2022-12-26T19:04:24;22.58;;;7.55;;
28170;SDS011;15458;53.346;-1.688;2022-12-26T19:06:52;12.77;;;4.53;;